createdAt,value
2022-08-07T00:00:26.278Z,16.50
2022-08-07T00:02:56.046Z,16.50
2022-08-07T00:05:24.469Z,16.50
2022-08-07T00:08:00.303Z,16.40
2022-08-07T00:10:31.413Z,16.50
2022-08-07T00:13:03.097Z,16.50
2022-08-07T00:15:46.618Z,16.50
2022-08-07T00:18:23.968Z,16.50
2022-08-07T00:21:02.093Z,16.40
2022-08-07T00:23:32.478Z,16.40
2022-08-07T00:26:12.875Z,16.40
2022-08-07T00:28:45.582Z,16.40
2022-08-07T00:31:16.520Z,16.50
2022-08-07T00:33:47.571Z,16.40
2022-08-07T00:36:15.398Z,16.40
2022-08-07T00:38:44.303Z,16.30
2022-08-07T00:41:14.483Z,16.30
2022-08-07T00:44:01.816Z,16.30
2022-08-07T00:46:33.123Z,16.20
2022-08-07T00:49:02.878Z,16.30
2022-08-07T00:51:57.560Z,16.20
2022-08-07T00:54:19.943Z,16.20
2022-08-07T00:56:49.724Z,16.20
2022-08-07T00:59:20.045Z,16.20
2022-08-07T01:02:02.102Z,16.20
2022-08-07T01:04:30.304Z,16.20
2022-08-07T01:07:00.092Z,16.20
2022-08-07T01:10:06.425Z,16.10
2022-08-07T01:12:30.139Z,16.10
2022-08-07T01:15:01.006Z,16.10
2022-08-07T01:17:30.880Z,16.10
2022-08-07T01:20:10.489Z,16.10
2022-08-07T01:22:46.699Z,16.10
2022-08-07T01:25:40.475Z,16.00
2022-08-07T01:28:09.046Z,15.90
2022-08-07T01:30:39.913Z,15.90
2022-08-07T01:33:09.883Z,15.90
2022-08-07T01:35:53.065Z,15.90
2022-08-07T01:38:25.777Z,15.90
2022-08-07T01:41:02.610Z,15.90
2022-08-07T01:43:38.061Z,15.90
2022-08-07T01:46:08.361Z,15.90
2022-08-07T01:48:46.787Z,15.90
2022-08-07T01:52:04.035Z,16.00
2022-08-07T01:54:32.699Z,16.00
2022-08-07T01:57:08.215Z,16.00
2022-08-07T01:59:54.578Z,16.00
2022-08-07T02:03:18.917Z,16.00
2022-08-07T02:06:00.881Z,15.90
2022-08-07T02:08:35.439Z,16.00
2022-08-07T02:11:05.713Z,16.00
2022-08-07T02:13:56.828Z,16.00
2022-08-07T02:16:28.715Z,16.00
2022-08-07T02:19:05.680Z,15.90
2022-08-07T02:21:55.871Z,15.90
2022-08-07T02:24:25.200Z,15.90
2022-08-07T02:26:53.098Z,15.80
2022-08-07T02:29:22.079Z,15.80
2022-08-07T02:31:51.576Z,15.80
2022-08-07T02:34:21.979Z,15.80
2022-08-07T02:36:55.062Z,15.80
2022-08-07T02:39:42.575Z,15.80
2022-08-07T02:42:16.608Z,15.80
2022-08-07T02:44:50.068Z,15.70
2022-08-07T02:47:23.480Z,15.70
2022-08-07T02:49:57.998Z,15.70
2022-08-07T02:52:32.599Z,15.70
2022-08-07T02:55:28.033Z,15.70
2022-08-07T02:57:59.013Z,15.70
2022-08-07T03:00:30.494Z,15.70
2022-08-07T03:02:59.798Z,15.70
2022-08-07T03:05:37.869Z,15.70
2022-08-07T03:08:10.145Z,15.70
2022-08-07T03:10:46.980Z,15.60
2022-08-07T03:13:19.678Z,15.60
2022-08-07T03:15:58.234Z,15.60
2022-08-07T03:18:34.705Z,15.60
2022-08-07T03:21:08.591Z,15.60
2022-08-07T03:24:19.560Z,15.50
2022-08-07T03:26:33.055Z,15.50
2022-08-07T03:29:10.541Z,15.50
2022-08-07T03:31:42.660Z,15.50
2022-08-07T03:34:18.304Z,15.40
2022-08-07T03:36:51.968Z,15.40
2022-08-07T03:39:46.426Z,15.30
2022-08-07T03:42:12.286Z,15.30
2022-08-07T03:44:40.535Z,15.40
2022-08-07T03:47:13.063Z,15.30
2022-08-07T03:49:47.815Z,15.30
2022-08-07T03:52:26.592Z,15.30
2022-08-07T03:55:06.100Z,15.40
2022-08-07T03:58:33.101Z,15.30
2022-08-07T04:00:29.272Z,15.30
2022-08-07T04:02:59.641Z,15.30
2022-08-07T04:05:40.681Z,15.20
2022-08-07T04:08:18.472Z,15.30
2022-08-07T04:10:54.228Z,15.30
2022-08-07T04:14:10.952Z,15.30
2022-08-07T04:16:31.077Z,15.30
2022-08-07T04:19:04.232Z,15.30
2022-08-07T04:21:59.433Z,15.30
2022-08-07T04:24:34.334Z,15.30
2022-08-07T04:27:15.201Z,15.30
2022-08-07T04:30:01.507Z,15.40
2022-08-07T04:32:47.915Z,15.40
2022-08-07T04:35:17.042Z,15.50
2022-08-07T04:38:03.418Z,15.50
2022-08-07T04:40:34.161Z,15.50
2022-08-07T04:43:03.580Z,15.50
2022-08-07T04:46:12.275Z,15.60
2022-08-07T04:48:59.300Z,15.70
2022-08-07T04:51:41.940Z,15.70
2022-08-07T04:54:31.996Z,15.70
2022-08-07T04:58:11.156Z,15.80
2022-08-07T05:00:24.256Z,15.80
2022-08-07T05:03:16.695Z,15.90
2022-08-07T05:06:19.649Z,16.00
2022-08-07T05:09:04.613Z,16.10
2022-08-07T05:11:56.892Z,16.20
2022-08-07T05:14:52.378Z,16.30
2022-08-07T05:17:52.869Z,16.40
2022-08-07T05:20:26.904Z,16.50
2022-08-07T05:23:02.081Z,16.60
2022-08-07T05:26:10.220Z,16.70
2022-08-07T05:28:23.276Z,16.70
2022-08-07T05:30:58.372Z,16.80
2022-08-07T05:33:28.758Z,16.90
2022-08-07T05:35:58.149Z,16.90
2022-08-07T05:38:59.452Z,17.00
2022-08-07T05:41:16.688Z,17.10
2022-08-07T05:44:08.167Z,17.20
2022-08-07T05:46:42.903Z,17.20
2022-08-07T05:49:14.456Z,17.30
2022-08-07T05:51:46.914Z,17.50
2022-08-07T05:54:31.148Z,17.50
2022-08-07T05:57:12.195Z,17.60
2022-08-07T05:59:55.904Z,17.60
2022-08-07T06:02:30.853Z,17.70
2022-08-07T06:05:05.825Z,17.80
2022-08-07T06:08:29.529Z,17.90
2022-08-07T06:10:23.813Z,17.90
2022-08-07T06:12:51.290Z,18.00
2022-08-07T06:15:36.803Z,18.10
2022-08-07T06:18:07.784Z,18.20
2022-08-07T06:20:49.841Z,18.30
2022-08-07T06:23:24.813Z,18.40
2022-08-07T06:25:54.527Z,18.50
2022-08-07T06:28:27.776Z,18.60
2022-08-07T06:30:58.429Z,18.70
2022-08-07T06:33:27.371Z,18.80
2022-08-07T06:36:13.194Z,18.90
2022-08-07T06:38:59.586Z,19.00
2022-08-07T06:42:02.110Z,19.00
2022-08-07T06:45:02.236Z,19.00
2022-08-07T06:47:47.885Z,19.10
2022-08-07T06:50:19.157Z,19.10
2022-08-07T06:52:53.133Z,19.30
2022-08-07T06:55:53.628Z,19.30
2022-08-07T06:58:16.601Z,19.40
2022-08-07T07:00:53.616Z,19.50
2022-08-07T07:03:26.341Z,19.60
2022-08-07T07:06:11.247Z,19.70
2022-08-07T07:08:39.968Z,19.80
2022-08-07T07:12:09.902Z,19.90
2022-08-07T07:14:03.879Z,20.00
2022-08-07T07:16:44.997Z,20.20
2022-08-07T07:19:56.441Z,20.30
2022-08-07T07:22:33.914Z,20.40
2022-08-07T07:25:13.842Z,20.50
2022-08-07T07:28:02.276Z,20.60
2022-08-07T07:30:39.693Z,20.80
2022-08-07T07:33:11.996Z,20.90
2022-08-07T07:35:54.384Z,20.90
2022-08-07T07:38:32.330Z,20.90
2022-08-07T07:41:02.957Z,20.90
2022-08-07T07:44:14.881Z,21.10
2022-08-07T07:46:40.233Z,21.10
2022-08-07T07:50:34.441Z,21.20
2022-08-07T07:52:02.469Z,21.30
2022-08-07T07:54:31.688Z,21.50
2022-08-07T07:57:01.574Z,21.60
2022-08-07T07:59:51.728Z,21.80
2022-08-07T08:02:22.628Z,22.00
2022-08-07T08:05:14.186Z,22.10
2022-08-07T08:07:59.594Z,22.20
2022-08-07T08:10:38.084Z,22.40
2022-08-07T08:13:10.608Z,22.50
2022-08-07T08:15:58.821Z,22.60
2022-08-07T08:18:30.115Z,22.70
2022-08-07T08:21:01.678Z,22.80
2022-08-07T08:23:52.803Z,23.00
2022-08-07T08:26:40.322Z,23.00
2022-08-07T08:29:08.707Z,23.20
2022-08-07T08:32:17.089Z,23.30
2022-08-07T08:34:38.512Z,23.40
2022-08-07T08:38:01.361Z,23.60
2022-08-07T08:39:58.411Z,23.50
2022-08-07T08:42:40.292Z,23.40
2022-08-07T08:45:18.346Z,23.60
2022-08-07T08:48:08.482Z,23.90
2022-08-07T08:50:44.815Z,23.90
2022-08-07T08:53:33.383Z,23.90
2022-08-07T08:56:08.431Z,23.90
2022-08-07T08:58:50.711Z,24.00
2022-08-07T09:01:29.853Z,24.30
2022-08-07T09:04:30.248Z,24.60
2022-08-07T09:07:23.168Z,24.90
2022-08-07T09:10:03.602Z,25.20
2022-08-07T09:12:33.590Z,26.10
2022-08-07T09:16:22.556Z,28.90
2022-08-07T09:18:36.756Z,31.20
2022-08-07T09:21:34.348Z,35.30
2022-08-07T09:24:32.199Z,38.60
2022-08-07T09:27:54.564Z,41.80
2022-08-07T09:30:27.957Z,44.00
2022-08-07T09:33:52.441Z,45.90
2022-08-07T09:36:43.112Z,47.50
2022-08-07T09:39:52.914Z,48.70
2022-08-07T09:42:33.380Z,49.10
2022-08-07T09:47:25.420Z,49.90
2022-08-07T09:48:12.255Z,49.70
2022-08-07T09:50:59.845Z,49.30
2022-08-07T09:53:41.207Z,49.30
2022-08-07T09:56:52.691Z,49.70
2022-08-07T09:59:44.732Z,49.60
2022-08-07T10:02:55.779Z,49.90
2022-08-07T10:05:58.205Z,50.40
2022-08-07T10:08:55.403Z,50.60
2022-08-07T10:12:02.249Z,50.90
2022-08-07T10:14:54.958Z,51.20
2022-08-07T10:18:01.001Z,52.10
2022-08-07T10:20:50.288Z,52.10
2022-08-07T10:24:05.047Z,52.20
2022-08-07T10:26:53.036Z,51.10
2022-08-07T10:29:43.168Z,50.40
2022-08-07T10:32:52.302Z,50.90
2022-08-07T10:35:56.499Z,50.90
2022-08-07T10:38:48.490Z,50.20
2022-08-07T10:41:52.145Z,49.80
2022-08-07T10:44:19.535Z,50.20
2022-08-07T10:47:11.794Z,51.10
2022-08-07T10:49:50.911Z,52.50
2022-08-07T10:52:51.877Z,53.00
2022-08-07T10:55:44.075Z,53.30
2022-08-07T10:58:33.015Z,53.40
2022-08-07T11:01:23.795Z,53.10
2022-08-07T11:04:23.154Z,53.60
2022-08-07T11:07:03.026Z,54.30
2022-08-07T11:10:10.259Z,54.30
2022-08-07T11:12:38.957Z,54.40
2022-08-07T11:15:17.887Z,54.90
2022-08-07T11:17:54.370Z,55.00
2022-08-07T11:20:25.161Z,54.90
2022-08-07T11:23:36.341Z,54.40
2022-08-07T11:26:14.212Z,54.50
2022-08-07T11:28:53.427Z,55.10
2022-08-07T11:31:41.058Z,55.70
2022-08-07T11:34:31.707Z,55.60
2022-08-07T11:37:38.164Z,55.70
2022-08-07T11:40:24.472Z,55.80
2022-08-07T11:43:17.057Z,56.20
2022-08-07T11:46:22.532Z,56.70
2022-08-07T11:50:25.236Z,56.70
2022-08-07T11:52:45.614Z,57.50
2022-08-07T11:56:09.405Z,58.20
2022-08-07T11:58:33.488Z,58.00
2022-08-07T12:01:58.724Z,57.10
2022-08-07T12:04:34.916Z,56.20
2022-08-07T12:07:39.172Z,55.80
2022-08-07T12:10:23.123Z,55.00
2022-08-07T12:13:37.095Z,55.00
2022-08-07T12:16:12.235Z,54.70
2022-08-07T12:19:14.779Z,54.10
2022-08-07T12:22:39.310Z,54.00
2022-08-07T12:26:05.853Z,53.50
2022-08-07T12:28:55.100Z,54.10
2022-08-07T12:31:53.208Z,54.60
2022-08-07T12:34:34.214Z,53.60
2022-08-07T12:37:08.301Z,53.60
2022-08-07T12:39:51.308Z,54.20
2022-08-07T12:42:27.612Z,54.90
2022-08-07T12:45:05.579Z,54.50
2022-08-07T12:47:45.573Z,54.40
2022-08-07T12:50:38.631Z,54.30
2022-08-07T12:53:22.136Z,54.10
2022-08-07T12:56:09.068Z,53.30
2022-08-07T12:58:40.047Z,52.60
2022-08-07T13:01:34.016Z,52.60
2022-08-07T13:04:34.113Z,52.90
2022-08-07T13:08:12.960Z,52.70
2022-08-07T13:10:52.069Z,52.90
2022-08-07T13:13:49.467Z,51.40
2022-08-07T13:16:36.662Z,50.40
2022-08-07T13:19:18.097Z,51.10
2022-08-07T13:22:12.648Z,51.80
2022-08-07T13:25:24.228Z,52.20
2022-08-07T13:28:10.931Z,50.90
2022-08-07T13:30:52.168Z,50.40
2022-08-07T13:34:30.879Z,50.30
2022-08-07T13:37:25.317Z,50.10
2022-08-07T13:40:42.108Z,50.10
2022-08-07T13:43:15.257Z,50.20
2022-08-07T13:46:20.891Z,50.80
2022-08-07T13:48:38.948Z,51.20
2022-08-07T13:51:28.133Z,50.00
2022-08-07T13:54:04.875Z,48.50
2022-08-07T13:56:36.068Z,45.10
2022-08-07T13:59:24.473Z,43.00
2022-08-07T14:02:10.236Z,42.70
2022-08-07T14:04:47.462Z,42.80
2022-08-07T14:07:20.974Z,40.80
2022-08-07T14:10:02.957Z,40.80
2022-08-07T14:13:01.230Z,41.40
2022-08-07T14:15:31.656Z,42.40
2022-08-07T14:18:28.415Z,42.90
2022-08-07T14:21:20.723Z,41.70
2022-08-07T14:24:00.241Z,41.10
2022-08-07T14:27:00.232Z,40.70
2022-08-07T14:30:07.248Z,41.10
2022-08-07T14:32:20.325Z,41.90
2022-08-07T14:34:54.237Z,42.90
2022-08-07T14:37:36.244Z,43.50
2022-08-07T14:40:17.343Z,43.70
2022-08-07T14:48:40.270Z,42.10
2022-08-07T14:51:15.646Z,41.90
2022-08-07T14:54:05.717Z,41.40
2022-08-07T14:56:40.267Z,41.00
2022-08-07T14:59:14.138Z,40.50
2022-08-07T15:02:33.089Z,40.40
2022-08-07T15:05:03.334Z,40.30
2022-08-07T15:07:51.412Z,40.60
2022-08-07T15:10:30.162Z,40.90
2022-08-07T15:15:57.515Z,41.20
2022-08-07T15:18:36.134Z,41.00
2022-08-07T15:25:15.651Z,40.20
2022-08-07T15:30:16.658Z,39.40
2022-08-07T15:32:51.021Z,39.10
2022-08-07T15:36:00.875Z,39.40
2022-08-07T15:38:30.801Z,39.70
2022-08-07T15:44:08.982Z,39.50
2022-08-07T15:46:49.940Z,39.40
2022-08-07T15:50:05.347Z,39.00
2022-08-07T15:52:21.544Z,38.20
2022-08-07T15:55:02.807Z,37.70
2022-08-07T15:57:47.407Z,37.20
2022-08-07T16:00:31.448Z,36.60
2022-08-07T16:03:21.532Z,36.20
2022-08-07T16:06:03.172Z,36.10
2022-08-07T16:08:38.343Z,36.10
2022-08-07T16:11:29.015Z,36.20
2022-08-07T16:14:05.234Z,36.20
2022-08-07T16:16:57.027Z,35.80
2022-08-07T16:19:42.028Z,35.40
2022-08-07T16:22:55.566Z,34.80
2022-08-07T16:25:56.145Z,34.00
2022-08-07T16:30:09.136Z,33.40
2022-08-07T16:31:51.129Z,33.10
2022-08-07T16:34:50.296Z,33.50
2022-08-07T16:38:05.456Z,34.30
2022-08-07T16:41:07.807Z,35.10
2022-08-07T16:44:06.281Z,35.00
2022-08-07T16:47:18.645Z,34.80
2022-08-07T16:50:26.726Z,35.00
2022-08-07T16:54:01.798Z,35.00
2022-08-07T16:56:24.655Z,34.80
2022-08-07T16:59:14.356Z,34.80
2022-08-07T17:02:03.415Z,34.80
2022-08-07T17:04:57.807Z,34.90
2022-08-07T17:07:55.900Z,34.70
2022-08-07T17:10:30.093Z,34.60
2022-08-07T17:13:15.679Z,34.50
2022-08-07T17:16:43.631Z,34.40
2022-08-07T17:20:02.736Z,34.20
2022-08-07T17:23:02.567Z,34.00
2022-08-07T17:26:04.275Z,33.80
2022-08-07T17:28:58.611Z,33.70
2022-08-07T17:32:02.518Z,33.50
2022-08-07T17:35:32.981Z,33.30
2022-08-07T17:38:09.325Z,33.10
2022-08-07T17:40:42.836Z,32.90
2022-08-07T17:44:02.835Z,32.60
2022-08-07T17:46:34.588Z,32.20
2022-08-07T17:49:09.059Z,31.90
2022-08-07T17:52:00.437Z,31.40
2022-08-07T17:54:55.329Z,31.20
2022-08-07T17:57:58.333Z,31.00
2022-08-07T18:00:34.584Z,30.90
2022-08-07T18:03:54.050Z,30.80
2022-08-07T18:06:38.436Z,30.70
2022-08-07T18:09:08.709Z,30.60
2022-08-07T18:12:16.228Z,30.50
2022-08-07T18:15:00.956Z,30.10
2022-08-07T18:18:39.931Z,29.60
2022-08-07T18:21:05.946Z,29.20
2022-08-07T18:23:57.229Z,29.00
2022-08-07T18:26:51.773Z,29.00
2022-08-07T18:30:07.865Z,28.90
2022-08-07T18:33:10.424Z,28.70
2022-08-07T18:35:51.529Z,28.50
2022-08-07T18:38:54.815Z,28.20
2022-08-07T18:41:45.624Z,27.80
2022-08-07T18:45:42.853Z,27.40
2022-08-07T18:47:47.718Z,27.10
2022-08-07T18:50:40.657Z,26.70
2022-08-07T18:53:42.973Z,26.20
2022-08-07T18:56:35.267Z,27.00
2022-08-07T18:59:46.732Z,24.90
2022-08-07T19:02:34.318Z,24.60
2022-08-07T19:05:16.214Z,24.10
2022-08-07T19:08:03.981Z,23.60
2022-08-07T19:10:51.370Z,23.20
2022-08-07T19:13:43.407Z,22.90
2022-08-07T19:17:07.747Z,22.60
2022-08-07T19:19:39.945Z,22.30
2022-08-07T19:22:18.818Z,21.90
2022-08-07T19:25:06.518Z,21.70
2022-08-07T19:28:57.463Z,21.50
2022-08-07T19:31:01.318Z,21.30
2022-08-07T19:33:20.363Z,21.20
2022-08-07T19:36:03.867Z,21.00
2022-08-07T19:38:35.089Z,20.80
2022-08-07T19:41:44.465Z,20.70
2022-08-07T19:44:21.917Z,20.60
2022-08-07T19:46:58.039Z,20.40
2022-08-07T19:49:58.323Z,20.30
2022-08-07T19:52:19.814Z,20.20
2022-08-07T19:54:56.609Z,20.10
2022-08-07T19:58:04.684Z,20.00
2022-08-07T20:00:28.987Z,20.00
2022-08-07T20:03:34.603Z,19.90
2022-08-07T20:06:06.219Z,19.80
2022-08-07T20:08:37.642Z,19.70
2022-08-07T20:11:14.996Z,19.60
2022-08-07T20:13:55.071Z,19.60
2022-08-07T20:16:35.494Z,19.50
2022-08-07T20:19:10.132Z,19.40
2022-08-07T20:21:46.842Z,19.30
2022-08-07T20:24:28.847Z,19.30
2022-08-07T20:27:02.203Z,19.30
2022-08-07T20:29:56.922Z,19.20
2022-08-07T20:32:46.542Z,19.20
2022-08-07T20:35:26.034Z,19.10
2022-08-07T20:37:58.490Z,19.10
2022-08-07T20:40:34.669Z,19.10
2022-08-07T20:43:14.483Z,19.00
2022-08-07T20:46:26.612Z,19.00
2022-08-07T20:48:58.054Z,18.90
2022-08-07T20:51:29.299Z,18.90
2022-08-07T20:54:08.488Z,18.80
2022-08-07T20:56:46.285Z,18.80
2022-08-07T21:00:05.541Z,18.70
2022-08-07T21:02:39.319Z,18.70
2022-08-07T21:05:18.683Z,18.70
2022-08-07T21:08:12.597Z,18.60
2022-08-07T21:10:44.442Z,18.60
2022-08-07T21:13:19.620Z,18.50
2022-08-07T21:16:00.344Z,18.50
2022-08-07T21:18:35.819Z,18.40
2022-08-07T21:21:10.067Z,18.40
2022-08-07T21:24:02.681Z,18.40
2022-08-07T21:26:58.773Z,18.40
2022-08-07T21:29:37.371Z,18.30
2022-08-07T21:32:46.920Z,18.30
2022-08-07T21:35:34.777Z,18.30
2022-08-07T21:38:27.962Z,18.20
2022-08-07T21:41:11.179Z,18.10
2022-08-07T21:43:58.520Z,18.10
2022-08-07T21:46:57.742Z,18.10
2022-08-07T21:50:01.922Z,18.10
2022-08-07T21:52:36.836Z,18.00
2022-08-07T21:55:28.228Z,18.00
2022-08-07T21:58:32.329Z,17.90
2022-08-07T22:01:08.512Z,17.90
2022-08-07T22:03:46.474Z,17.90
2022-08-07T22:06:31.265Z,17.90
2022-08-07T22:09:07.850Z,17.80
2022-08-07T22:11:52.916Z,17.80
2022-08-07T22:14:23.807Z,17.80
2022-08-07T22:17:04.962Z,17.80
2022-08-07T22:19:53.838Z,17.80
2022-08-07T22:22:33.985Z,17.80
2022-08-07T22:25:12.946Z,17.80
2022-08-07T22:28:29.293Z,17.80
2022-08-07T22:30:58.268Z,17.80
2022-08-07T22:33:52.416Z,17.80
2022-08-07T22:36:55.400Z,17.80
2022-08-07T22:39:35.308Z,17.80
2022-08-07T22:42:25.618Z,17.80
2022-08-07T22:44:59.687Z,17.80
2022-08-07T22:48:01.196Z,17.80
2022-08-07T22:50:54.231Z,17.80
2022-08-07T22:54:07.000Z,17.80
2022-08-07T22:56:56.367Z,17.80
2022-08-07T22:59:50.004Z,17.80
2022-08-07T23:02:48.193Z,17.80
2022-08-07T23:06:09.905Z,17.80
2022-08-07T23:10:06.536Z,17.70
2022-08-07T23:12:39.792Z,17.70
2022-08-07T23:16:04.645Z,17.70
2022-08-07T23:18:21.075Z,17.60
2022-08-07T23:21:16.343Z,17.60
2022-08-07T23:24:06.328Z,17.60
2022-08-07T23:27:08.246Z,17.60
2022-08-07T23:30:37.565Z,17.60
2022-08-07T23:34:33.553Z,17.60
2022-08-07T23:37:17.690Z,17.60
2022-08-07T23:39:59.471Z,17.60
2022-08-07T23:42:46.560Z,17.60
2022-08-07T23:45:33.207Z,17.60
2022-08-07T23:48:31.468Z,17.60
2022-08-07T23:53:01.106Z,17.60
2022-08-07T23:54:36.198Z,17.60
2022-08-07T23:57:11.082Z,17.60
